createdAt,value
2017-08-09T00:01:57.470Z,14.70
2017-08-09T00:04:26.767Z,14.70
2017-08-09T00:06:56.025Z,14.60
2017-08-09T00:09:25.269Z,14.50
2017-08-09T00:11:55.513Z,14.50
2017-08-09T00:14:24.781Z,14.50
2017-08-09T00:16:54.065Z,14.50
2017-08-09T00:19:23.324Z,14.40
2017-08-09T00:21:52.644Z,14.40
2017-08-09T00:24:21.899Z,14.40
2017-08-09T00:26:52.399Z,14.40
2017-08-09T00:29:21.746Z,14.30
2017-08-09T00:31:51.022Z,14.30
2017-08-09T00:34:21.072Z,14.20
2017-08-09T00:36:50.371Z,14.10
2017-08-09T00:39:19.657Z,14.10
2017-08-09T00:41:48.937Z,14.10
2017-08-09T00:44:18.200Z,14.00
2017-08-09T00:46:49.284Z,13.90
2017-08-09T00:49:18.777Z,13.90
2017-08-09T00:51:49.118Z,13.80
2017-08-09T00:54:19.174Z,13.70
2017-08-09T00:56:50.914Z,13.60
2017-08-09T00:59:20.896Z,13.60
2017-08-09T01:01:50.978Z,13.60
2017-08-09T01:04:20.285Z,13.60
2017-08-09T01:06:49.582Z,13.60
2017-08-09T01:09:18.973Z,13.50
2017-08-09T01:11:48.283Z,13.50
2017-08-09T01:14:17.578Z,13.40
2017-08-09T01:16:46.936Z,13.40
2017-08-09T01:19:16.226Z,13.30
2017-08-09T01:21:45.541Z,13.30
2017-08-09T01:24:14.786Z,13.30
2017-08-09T01:26:44.045Z,13.20
2017-08-09T01:29:13.328Z,13.20
2017-08-09T01:31:42.584Z,13.20
2017-08-09T01:34:11.889Z,13.20
2017-08-09T01:36:41.141Z,13.10
2017-08-09T01:39:10.447Z,13.10
2017-08-09T01:41:39.726Z,13.00
2017-08-09T01:44:09.760Z,13.00
2017-08-09T01:46:39.019Z,13.00
2017-08-09T01:49:08.276Z,12.90
2017-08-09T01:51:38.279Z,12.90
2017-08-09T01:54:07.527Z,12.90
2017-08-09T01:56:36.798Z,12.80
2017-08-09T01:59:06.094Z,12.80
2017-08-09T02:01:35.346Z,12.80
2017-08-09T02:04:04.897Z,12.80
2017-08-09T02:06:34.179Z,12.70
2017-08-09T02:09:04.270Z,12.70
2017-08-09T02:11:33.513Z,12.70
2017-08-09T02:14:02.788Z,12.70
2017-08-09T02:16:32.038Z,12.70
2017-08-09T02:19:01.322Z,12.70
2017-08-09T02:21:30.577Z,12.60
2017-08-09T02:23:59.890Z,12.60
2017-08-09T02:26:30.021Z,12.60
2017-08-09T02:28:59.246Z,12.50
2017-08-09T02:31:28.682Z,12.50
2017-08-09T02:33:58.975Z,12.50
2017-08-09T02:36:29.705Z,12.50
2017-08-09T02:38:59.659Z,12.50
2017-08-09T02:41:29.018Z,12.50
2017-08-09T02:43:58.316Z,12.40
2017-08-09T02:46:27.630Z,12.40
2017-08-09T02:48:57.084Z,12.40
2017-08-09T02:51:26.397Z,12.40
2017-08-09T02:53:55.662Z,12.40
2017-08-09T02:56:25.009Z,12.30
2017-08-09T02:58:54.246Z,12.30
2017-08-09T03:01:23.525Z,12.40
2017-08-09T03:03:53.563Z,12.30
2017-08-09T03:06:22.847Z,12.20
2017-08-09T03:08:52.194Z,12.30
2017-08-09T03:11:21.633Z,12.20
2017-08-09T03:13:50.915Z,12.20
2017-08-09T03:16:20.170Z,12.20
2017-08-09T03:18:49.612Z,12.20
2017-08-09T03:21:18.862Z,12.20
2017-08-09T03:23:48.138Z,12.20
2017-08-09T03:26:17.392Z,12.20
2017-08-09T03:28:46.888Z,12.20
2017-08-09T03:31:16.160Z,12.20
2017-08-09T03:33:46.182Z,12.00
2017-08-09T03:36:15.514Z,12.00
2017-08-09T03:38:44.770Z,12.00
2017-08-09T03:41:14.662Z,12.00
2017-08-09T03:43:43.950Z,12.00
2017-08-09T03:46:13.215Z,12.00
2017-08-09T03:48:43.485Z,12.00
2017-08-09T03:51:12.973Z,12.00
2017-08-09T03:53:42.237Z,12.00
2017-08-09T03:56:12.264Z,12.00
2017-08-09T03:58:42.358Z,12.20
2017-08-09T04:01:11.648Z,12.20
2017-08-09T04:03:41.174Z,12.20
2017-08-09T04:06:10.595Z,12.20
2017-08-09T04:08:40.023Z,12.20
2017-08-09T04:11:09.253Z,12.20
2017-08-09T04:13:38.581Z,12.30
2017-08-09T04:16:08.618Z,12.30
2017-08-09T04:18:38.045Z,12.20
2017-08-09T04:21:07.343Z,12.30
2017-08-09T04:23:36.592Z,12.40
2017-08-09T04:26:05.845Z,12.40
2017-08-09T04:28:35.122Z,12.50
2017-08-09T04:31:04.412Z,12.50
2017-08-09T04:33:33.678Z,12.70
2017-08-09T04:36:03.352Z,12.70
2017-08-09T04:38:33.356Z,13.00
2017-08-09T04:41:02.638Z,13.00
2017-08-09T04:43:32.191Z,13.20
2017-08-09T04:46:01.496Z,13.30
2017-08-09T04:48:30.898Z,13.40
2017-08-09T04:51:00.146Z,13.50
2017-08-09T04:53:29.395Z,13.60
2017-08-09T04:55:58.683Z,13.70
2017-08-09T04:58:27.934Z,13.80
2017-08-09T05:00:57.247Z,13.90
2017-08-09T05:03:26.899Z,13.90
2017-08-09T05:05:56.927Z,14.00
2017-08-09T05:08:26.177Z,14.10
2017-08-09T05:10:55.442Z,14.30
2017-08-09T05:13:24.716Z,14.50
2017-08-09T05:15:53.965Z,14.60
2017-08-09T05:18:23.222Z,14.70
2017-08-09T05:20:52.760Z,14.90
2017-08-09T05:23:22.022Z,15.10
2017-08-09T05:25:51.295Z,15.20
2017-08-09T05:28:20.571Z,15.10
2017-08-09T05:30:49.792Z,15.10
2017-08-09T05:33:19.047Z,15.20
2017-08-09T05:35:48.319Z,15.30
2017-08-09T05:38:17.577Z,15.50
2017-08-09T05:40:46.827Z,15.60
2017-08-09T05:43:16.102Z,15.80
2017-08-09T05:45:45.344Z,16.10
2017-08-09T05:48:14.634Z,16.40
2017-08-09T05:50:43.896Z,16.60
2017-08-09T05:53:13.149Z,16.80
2017-08-09T05:55:42.403Z,17.10
2017-08-09T05:58:12.443Z,17.10
2017-08-09T06:00:42.396Z,17.10
2017-08-09T06:03:11.768Z,17.90
2017-08-09T06:05:41.770Z,18.30
2017-08-09T06:08:11.179Z,18.30
2017-08-09T06:10:41.254Z,20.20
2017-08-09T06:13:10.518Z,20.20
2017-08-09T06:15:39.801Z,20.80
2017-08-09T06:18:09.203Z,22.80
2017-08-09T06:20:39.320Z,22.90
2017-08-09T06:23:09.367Z,22.80
2017-08-09T06:25:38.653Z,22.80
2017-08-09T06:28:07.901Z,22.40
2017-08-09T06:30:37.184Z,23.20
2017-08-09T06:33:06.459Z,23.60
2017-08-09T06:35:36.181Z,23.60
2017-08-09T06:38:06.171Z,24.20
2017-08-09T06:40:35.414Z,23.90
2017-08-09T06:43:04.697Z,23.90
2017-08-09T06:45:34.154Z,24.10
2017-08-09T06:48:03.417Z,23.40
2017-08-09T06:50:32.663Z,23.30
2017-08-09T06:53:01.938Z,24.90
2017-08-09T06:55:31.201Z,25.80
2017-08-09T06:58:00.461Z,27.60
2017-08-09T07:00:29.781Z,29.30
2017-08-09T07:02:59.253Z,30.40
2017-08-09T07:05:28.772Z,31.30
2017-08-09T07:07:58.030Z,31.80
2017-08-09T07:10:27.301Z,31.90
2017-08-09T07:12:56.546Z,31.10
2017-08-09T07:15:25.800Z,29.70
2017-08-09T07:17:55.311Z,28.60
2017-08-09T07:20:25.394Z,25.60
2017-08-09T07:22:54.657Z,25.50
2017-08-09T07:25:23.926Z,26.00
2017-08-09T07:27:53.320Z,25.90
2017-08-09T07:30:22.560Z,27.30
2017-08-09T07:32:51.825Z,28.50
2017-08-09T07:35:21.130Z,28.50
2017-08-09T07:37:50.375Z,28.10
2017-08-09T07:40:19.645Z,28.00
2017-08-09T07:42:49.690Z,26.80
2017-08-09T07:45:19.266Z,26.80
2017-08-09T07:47:49.343Z,25.20
2017-08-09T07:50:18.703Z,25.20
2017-08-09T07:52:47.938Z,24.20
2017-08-09T07:55:17.215Z,23.50
2017-08-09T07:57:46.446Z,22.70
2017-08-09T08:00:15.903Z,22.00
2017-08-09T08:02:46.034Z,21.40
2017-08-09T08:05:15.307Z,21.30
2017-08-09T08:07:45.379Z,22.90
2017-08-09T08:10:14.627Z,22.90
2017-08-09T08:12:44.005Z,23.00
2017-08-09T08:15:13.299Z,22.90
2017-08-09T08:17:42.571Z,23.00
2017-08-09T08:20:11.847Z,24.40
2017-08-09T08:22:41.106Z,25.00
2017-08-09T08:25:10.386Z,24.80
2017-08-09T08:27:39.845Z,24.40
2017-08-09T08:30:09.864Z,29.00
2017-08-09T08:32:39.143Z,29.00
2017-08-09T08:35:08.630Z,31.40
2017-08-09T08:37:37.890Z,32.60
2017-08-09T08:40:07.154Z,33.80
2017-08-09T08:42:36.594Z,34.40
2017-08-09T08:45:05.864Z,34.40
2017-08-09T08:47:35.143Z,35.20
2017-08-09T08:50:04.397Z,35.60
2017-08-09T08:52:33.669Z,35.20
2017-08-09T08:55:03.758Z,32.40
2017-08-09T08:57:33.035Z,32.30
2017-08-09T09:00:02.317Z,31.70
2017-08-09T09:02:31.564Z,30.60
2017-08-09T09:05:00.825Z,31.20
2017-08-09T09:07:30.104Z,31.70
2017-08-09T09:10:00.159Z,28.70
2017-08-09T09:12:29.405Z,28.60
2017-08-09T09:14:58.680Z,27.70
2017-08-09T09:17:27.945Z,26.90
2017-08-09T09:19:57.188Z,27.40
2017-08-09T09:22:26.554Z,26.90
2017-08-09T09:24:55.853Z,26.90
2017-08-09T09:27:25.160Z,28.80
2017-08-09T09:29:54.408Z,31.20
2017-08-09T09:32:23.653Z,33.40
2017-08-09T09:34:52.948Z,34.80
2017-08-09T09:37:22.376Z,36.40
2017-08-09T09:39:51.656Z,36.70
2017-08-09T09:42:20.916Z,35.30
2017-08-09T09:44:50.364Z,34.50
2017-08-09T09:47:20.024Z,33.80
2017-08-09T09:49:49.269Z,34.30
2017-08-09T09:52:18.551Z,34.60
2017-08-09T09:54:48.609Z,35.40
2017-08-09T09:57:17.859Z,35.40
2017-08-09T09:59:47.129Z,35.40
2017-08-09T10:02:16.646Z,35.60
2017-08-09T10:04:45.922Z,36.40
2017-08-09T10:07:15.157Z,37.00
2017-08-09T10:09:44.407Z,37.30
2017-08-09T10:12:13.671Z,36.00
2017-08-09T10:14:42.930Z,34.50
2017-08-09T10:17:12.183Z,35.10
2017-08-09T10:19:42.213Z,34.20
2017-08-09T10:22:11.469Z,34.20
2017-08-09T10:24:40.717Z,32.30
2017-08-09T10:27:09.974Z,31.40
2017-08-09T10:29:39.238Z,31.90
2017-08-09T10:32:09.435Z,32.80
2017-08-09T10:34:39.488Z,34.70
2017-08-09T10:37:08.755Z,34.60
2017-08-09T10:39:38.005Z,34.60
2017-08-09T10:42:07.269Z,33.10
2017-08-09T10:44:36.572Z,32.20
2017-08-09T10:47:05.841Z,33.20
2017-08-09T10:49:35.871Z,33.80
2017-08-09T10:52:05.865Z,33.80
2017-08-09T10:54:35.121Z,34.70
2017-08-09T10:57:04.379Z,35.90
2017-08-09T10:59:33.640Z,36.80
2017-08-09T11:02:02.889Z,37.30
2017-08-09T11:04:33.218Z,37.90
2017-08-09T11:07:03.277Z,38.00
2017-08-09T11:09:32.538Z,38.00
2017-08-09T11:12:01.932Z,38.30
2017-08-09T11:14:32.015Z,37.20
2017-08-09T11:17:01.300Z,37.10
2017-08-09T11:19:30.551Z,36.60
2017-08-09T11:21:59.996Z,36.00
2017-08-09T11:24:29.252Z,35.80
2017-08-09T11:26:58.506Z,35.10
2017-08-09T11:29:27.807Z,35.00
2017-08-09T11:31:57.362Z,34.70
2017-08-09T11:34:26.647Z,33.50
2017-08-09T11:36:56.139Z,31.30
2017-08-09T11:39:25.345Z,29.10
2017-08-09T11:41:54.626Z,28.00
2017-08-09T11:44:23.870Z,27.50
2017-08-09T11:46:54.004Z,26.60
2017-08-09T11:49:24.014Z,26.30
2017-08-09T11:51:53.286Z,26.30
2017-08-09T11:54:22.546Z,26.10
2017-08-09T11:56:51.842Z,26.20
2017-08-09T11:59:21.200Z,26.20
2017-08-09T12:01:50.458Z,26.10
2017-08-09T12:04:19.722Z,25.80
2017-08-09T12:06:50.181Z,25.70
2017-08-09T12:09:19.514Z,25.70
2017-08-09T12:11:48.777Z,25.70
2017-08-09T12:14:18.052Z,25.40
2017-08-09T12:16:47.354Z,25.50
2017-08-09T12:19:16.594Z,25.70
2017-08-09T12:21:45.882Z,25.70
2017-08-09T12:24:15.139Z,25.70
2017-08-09T12:26:44.405Z,25.90
2017-08-09T12:29:13.679Z,26.00
2017-08-09T12:31:42.928Z,26.20
2017-08-09T12:34:12.201Z,26.40
2017-08-09T12:36:41.502Z,26.80
2017-08-09T12:39:11.111Z,26.80
2017-08-09T12:41:40.415Z,26.60
2017-08-09T12:44:09.721Z,26.40
2017-08-09T12:46:38.997Z,26.40
2017-08-09T12:49:08.237Z,26.40
2017-08-09T12:51:37.497Z,26.50
2017-08-09T12:54:07.529Z,26.30
2017-08-09T12:56:36.778Z,26.30
2017-08-09T12:59:06.079Z,26.40
2017-08-09T13:01:35.328Z,26.40
2017-08-09T13:04:04.582Z,26.50
2017-08-09T13:06:33.862Z,26.50
2017-08-09T13:09:03.109Z,26.50
2017-08-09T13:11:32.766Z,26.40
2017-08-09T13:14:02.015Z,26.50
2017-08-09T13:16:31.441Z,26.20
2017-08-09T13:19:00.696Z,26.10
2017-08-09T13:21:29.938Z,26.30
2017-08-09T13:23:59.210Z,26.30
2017-08-09T13:26:28.450Z,26.20
2017-08-09T13:28:58.054Z,26.40
2017-08-09T13:31:27.606Z,26.50
2017-08-09T13:33:56.919Z,26.50
2017-08-09T13:36:26.197Z,26.40
2017-08-09T13:38:55.487Z,26.30
2017-08-09T13:41:24.741Z,26.10
2017-08-09T13:43:54.763Z,26.00
2017-08-09T13:46:24.038Z,26.00
2017-08-09T13:48:53.540Z,26.00
2017-08-09T13:51:23.011Z,26.10
2017-08-09T13:53:52.502Z,26.20
2017-08-09T13:56:21.798Z,26.40
2017-08-09T13:58:51.052Z,26.50
2017-08-09T14:01:20.341Z,26.70
2017-08-09T14:03:49.610Z,26.90
2017-08-09T14:06:18.856Z,27.00
2017-08-09T14:08:48.152Z,27.00
2017-08-09T14:11:17.462Z,27.10
2017-08-09T14:13:46.863Z,26.80
2017-08-09T14:16:16.146Z,26.70
2017-08-09T14:18:45.413Z,26.70
2017-08-09T14:21:14.701Z,26.40
2017-08-09T14:23:43.990Z,26.40
2017-08-09T14:26:13.326Z,26.70
2017-08-09T14:28:42.612Z,26.80
2017-08-09T14:31:11.872Z,27.00
2017-08-09T14:33:41.192Z,26.90
2017-08-09T14:36:10.439Z,26.80
2017-08-09T14:38:39.730Z,26.70
2017-08-09T14:41:08.994Z,26.50
2017-08-09T14:43:38.243Z,26.50
2017-08-09T14:46:07.545Z,26.10
2017-08-09T14:48:36.793Z,26.00
2017-08-09T14:51:06.079Z,26.10
2017-08-09T14:53:35.375Z,25.80
2017-08-09T14:56:04.667Z,25.50
2017-08-09T14:58:33.946Z,25.20
2017-08-09T15:01:03.721Z,25.10
2017-08-09T15:03:33.033Z,25.00
2017-08-09T15:06:02.505Z,24.70
2017-08-09T15:08:32.409Z,24.70
2017-08-09T15:11:01.689Z,24.80
2017-08-09T15:13:30.953Z,24.90
2017-08-09T15:16:01.037Z,24.80
2017-08-09T15:18:30.301Z,24.70
2017-08-09T15:20:59.567Z,24.80
2017-08-09T15:23:28.807Z,24.80
2017-08-09T15:25:58.060Z,24.90
2017-08-09T15:28:28.127Z,24.70
2017-08-09T15:30:57.372Z,24.70
2017-08-09T15:33:26.680Z,24.60
2017-08-09T15:35:55.946Z,24.60
2017-08-09T15:38:25.378Z,24.60
2017-08-09T15:40:54.672Z,24.90
2017-08-09T15:43:23.914Z,25.30
2017-08-09T15:45:53.191Z,25.80
2017-08-09T15:48:22.502Z,26.10
2017-08-09T15:50:51.795Z,26.00
2017-08-09T15:53:21.190Z,26.20
2017-08-09T15:55:50.582Z,26.10
2017-08-09T15:58:19.847Z,25.90
2017-08-09T16:00:49.100Z,26.00
2017-08-09T16:03:18.375Z,25.90
2017-08-09T16:05:47.790Z,26.10
2017-08-09T16:08:17.042Z,26.20
2017-08-09T16:10:46.311Z,26.40
2017-08-09T16:13:16.352Z,26.30
2017-08-09T16:15:45.604Z,26.30
2017-08-09T16:18:14.846Z,26.10
2017-08-09T16:20:44.354Z,25.90
2017-08-09T16:23:13.633Z,25.50
2017-08-09T16:25:42.894Z,25.30
2017-08-09T16:28:12.172Z,25.10
2017-08-09T16:30:41.450Z,24.90
2017-08-09T16:33:10.721Z,24.60
2017-08-09T16:35:39.988Z,24.20
2017-08-09T16:38:09.290Z,23.60
2017-08-09T16:40:38.577Z,23.40
2017-08-09T16:43:07.838Z,23.00
2017-08-09T16:45:37.698Z,22.70
2017-08-09T16:48:06.963Z,22.30
2017-08-09T16:50:36.806Z,22.00
2017-08-09T16:53:06.179Z,22.00
2017-08-09T16:55:35.684Z,21.60
2017-08-09T16:58:04.943Z,21.50
2017-08-09T17:00:34.399Z,21.40
2017-08-09T17:03:03.666Z,21.40
2017-08-09T17:05:32.936Z,21.30
2017-08-09T17:08:02.344Z,21.20
2017-08-09T17:10:31.827Z,21.00
2017-08-09T17:13:01.100Z,20.90
2017-08-09T17:15:30.385Z,20.80
2017-08-09T17:17:59.658Z,20.80
2017-08-09T17:20:29.007Z,20.80
2017-08-09T17:22:59.041Z,20.60
2017-08-09T17:25:28.328Z,20.60
2017-08-09T17:27:57.589Z,20.50
2017-08-09T17:30:26.870Z,20.70
2017-08-09T17:32:56.125Z,20.60
2017-08-09T17:35:25.393Z,20.70
2017-08-09T17:37:54.663Z,20.70
2017-08-09T17:40:24.034Z,20.70
2017-08-09T17:42:53.269Z,20.60
2017-08-09T17:45:22.589Z,20.70
2017-08-09T17:47:51.861Z,20.50
2017-08-09T17:50:21.118Z,20.60
2017-08-09T17:52:51.214Z,20.60
2017-08-09T17:55:20.778Z,20.60
2017-08-09T17:57:50.223Z,20.60
2017-08-09T18:00:19.527Z,20.50
2017-08-09T18:02:49.115Z,20.40
2017-08-09T18:05:18.419Z,20.40
2017-08-09T18:07:47.704Z,20.30
2017-08-09T18:10:17.858Z,20.30
2017-08-09T18:12:47.107Z,20.30
2017-08-09T18:15:16.350Z,20.30
2017-08-09T18:17:45.662Z,20.30
2017-08-09T18:20:14.937Z,20.30
2017-08-09T18:22:44.218Z,20.30
2017-08-09T18:25:13.617Z,20.30
2017-08-09T18:27:42.853Z,20.20
2017-08-09T18:30:12.098Z,20.20
2017-08-09T18:32:41.610Z,20.20
2017-08-09T18:35:11.027Z,20.20
2017-08-09T18:37:40.286Z,20.00
2017-08-09T18:40:09.872Z,19.90
2017-08-09T18:42:39.143Z,19.90
2017-08-09T18:45:08.419Z,19.90
2017-08-09T18:47:37.692Z,19.70
2017-08-09T18:50:07.152Z,19.70
2017-08-09T18:52:36.425Z,19.60
2017-08-09T18:55:05.891Z,19.70
2017-08-09T18:57:35.150Z,19.60
2017-08-09T19:00:04.418Z,19.50
2017-08-09T19:02:33.698Z,19.50
2017-08-09T19:05:02.977Z,19.40
2017-08-09T19:07:32.270Z,19.30
2017-08-09T19:10:02.387Z,19.10
2017-08-09T19:12:31.668Z,19.10
2017-08-09T19:15:00.998Z,19.10
2017-08-09T19:17:31.046Z,19.10
2017-08-09T19:20:00.383Z,19.10
2017-08-09T19:22:29.629Z,19.00
2017-08-09T19:24:58.919Z,19.00
2017-08-09T19:27:28.207Z,18.90
2017-08-09T19:29:57.518Z,18.90
2017-08-09T19:32:26.785Z,18.90
2017-08-09T19:34:56.062Z,18.80
2017-08-09T19:37:25.372Z,18.80
2017-08-09T19:39:54.703Z,18.80
2017-08-09T19:42:23.955Z,18.80
2017-08-09T19:44:53.236Z,18.70
2017-08-09T19:47:22.502Z,18.60
2017-08-09T19:49:51.780Z,18.60
2017-08-09T19:52:21.059Z,18.60
2017-08-09T19:54:50.361Z,18.50
2017-08-09T19:57:19.631Z,18.60
2017-08-09T19:59:48.905Z,18.50
2017-08-09T20:02:18.292Z,18.50
2017-08-09T20:04:47.595Z,18.50
2017-08-09T20:07:16.835Z,18.50
2017-08-09T20:09:46.133Z,18.50
2017-08-09T20:12:15.432Z,18.50
2017-08-09T20:14:44.672Z,18.50
2017-08-09T20:17:13.938Z,18.50
2017-08-09T20:19:43.950Z,18.50
2017-08-09T20:22:13.208Z,18.50
2017-08-09T20:24:42.532Z,18.50
2017-08-09T20:27:11.798Z,18.50
2017-08-09T20:29:41.101Z,18.50
2017-08-09T20:32:10.815Z,18.50
2017-08-09T20:34:40.123Z,18.50
2017-08-09T20:37:09.667Z,18.50
2017-08-09T20:39:39.054Z,18.40
2017-08-09T20:42:08.313Z,18.40
2017-08-09T20:44:37.602Z,18.40
2017-08-09T20:47:06.902Z,18.30
2017-08-09T20:49:36.548Z,18.30
2017-08-09T20:52:05.805Z,18.30
2017-08-09T20:54:35.148Z,18.40
2017-08-09T20:57:04.497Z,18.30
2017-08-09T20:59:33.737Z,18.30
2017-08-09T21:02:03.778Z,18.30
2017-08-09T21:04:33.345Z,18.20
2017-08-09T21:07:02.630Z,18.20
2017-08-09T21:09:32.667Z,18.20
2017-08-09T21:12:01.975Z,18.20
2017-08-09T21:14:31.225Z,18.20
2017-08-09T21:17:00.490Z,18.20
2017-08-09T21:19:29.772Z,18.10
2017-08-09T21:21:59.010Z,18.10
2017-08-09T21:24:28.320Z,18.00
2017-08-09T21:26:57.582Z,18.00
2017-08-09T21:29:26.932Z,18.00
2017-08-09T21:31:57.005Z,17.90
2017-08-09T21:34:27.025Z,17.90
2017-08-09T21:36:56.387Z,17.90
2017-08-09T21:39:25.699Z,17.80
2017-08-09T21:41:55.057Z,17.90
2017-08-09T21:44:24.320Z,17.80
2017-08-09T21:46:53.622Z,17.80
2017-08-09T21:49:22.878Z,17.80
2017-08-09T21:51:52.186Z,17.80
2017-08-09T21:54:21.478Z,17.80
2017-08-09T21:56:50.797Z,17.70
2017-08-09T21:59:20.044Z,17.80
2017-08-09T22:01:49.321Z,17.70
2017-08-09T22:04:18.582Z,17.70
2017-08-09T22:06:47.855Z,17.70
2017-08-09T22:09:17.520Z,17.70
2017-08-09T22:11:46.769Z,17.80
2017-08-09T22:14:16.046Z,17.80
2017-08-09T22:16:45.318Z,17.90
2017-08-09T22:19:15.332Z,18.00
2017-08-09T22:21:44.587Z,18.00
2017-08-09T22:24:13.862Z,18.00
2017-08-09T22:26:43.728Z,18.10
2017-08-09T22:29:12.996Z,18.00
2017-08-09T22:31:42.238Z,18.00
2017-08-09T22:34:11.495Z,18.00
2017-08-09T22:36:40.869Z,18.00
2017-08-09T22:39:10.525Z,18.00
2017-08-09T22:41:39.800Z,17.90
2017-08-09T22:44:09.090Z,17.90
2017-08-09T22:46:38.354Z,17.90
2017-08-09T22:49:07.611Z,18.00
2017-08-09T22:51:36.853Z,17.90
2017-08-09T22:54:06.138Z,17.80
2017-08-09T22:56:35.450Z,17.80
2017-08-09T22:59:04.769Z,17.80
2017-08-09T23:01:34.042Z,17.60
2017-08-09T23:04:04.004Z,17.50
2017-08-09T23:06:33.249Z,17.50
2017-08-09T23:09:02.497Z,17.30
2017-08-09T23:11:32.523Z,17.20
2017-08-09T23:14:01.810Z,17.20
2017-08-09T23:16:34.638Z,17.00
2017-08-09T23:19:03.888Z,17.00
2017-08-09T23:21:33.159Z,16.90
2017-08-09T23:24:02.472Z,17.00
2017-08-09T23:26:31.737Z,17.00
2017-08-09T23:29:01.204Z,16.80
2017-08-09T23:31:30.461Z,16.80
2017-08-09T23:33:59.701Z,16.90
2017-08-09T23:36:29.033Z,16.80
2017-08-09T23:38:58.397Z,16.80
2017-08-09T23:41:27.697Z,16.80
2017-08-09T23:43:56.979Z,16.70
2017-08-09T23:46:26.206Z,16.70
2017-08-09T23:48:55.686Z,16.70
2017-08-09T23:51:24.939Z,16.70
2017-08-09T23:53:54.254Z,16.60
2017-08-09T23:56:23.502Z,16.60
2017-08-09T23:58:52.784Z,16.60
